Time,TemperatureF,DewpointF,PressureIn,WindDirection,WindDirectionDegrees,WindSpeedMPH,WindSpeedGustMPH,Humidity,HourlyPrecipIn,Conditions,Clouds,dailyrainin,SoftwareType,DateUTC
2013-01-17 00:04:00,37.4,13.3,30.18,North,0,0.0,0.7,37,0.00,,,0.00,WUHU216HW,2013-01-17 07:04:00,
2013-01-17 00:14:00,36.9,13.5,30.18,West,270,0.2,0.7,38,0.00,,,0.00,WUHU216HW,2013-01-17 07:14:00,
2013-01-17 00:24:00,36.4,13.1,30.17,North,0,0.4,1.1,38,0.00,,,0.00,WUHU216HW,2013-01-17 07:24:00,
2013-01-17 00:35:00,36.4,13.7,30.17,WSW,248,0.0,1.1,39,0.00,,,0.00,WUHU216HW,2013-01-17 07:35:00,
2013-01-17 00:45:00,36.4,13.7,30.18,SE,135,0.0,1.1,39,0.00,,,0.00,WUHU216HW,2013-01-17 07:45:00,
2013-01-17 00:55:00,35.8,13.9,30.18,NW,315,0.0,1.1,40,0.00,,,0.00,WUHU216HW,2013-01-17 07:55:00,
2013-01-17 01:05:00,35.6,14.2,30.18,SE,135,0.4,1.8,41,0.00,,,0.00,WUHU216HW,2013-01-17 08:05:00,
2013-01-17 01:15:00,35.6,14.2,30.18,NE,45,0.0,1.1,41,0.00,,,0.00,WUHU216HW,2013-01-17 08:15:00,
2013-01-17 01:25:00,35.5,14.6,30.17,NNW,338,0.7,1.3,42,0.00,,,0.00,WUHU216HW,2013-01-17 08:25:00,
2013-01-17 01:35:00,35.8,14.4,30.16,North,0,0.4,1.8,41,0.00,,,0.00,WUHU216HW,2013-01-17 08:35:00,
2013-01-17 01:45:00,36.0,14.1,30.17,WNW,293,1.1,1.1,40,0.00,,,0.00,WUHU216HW,2013-01-17 08:45:00,
2013-01-17 01:55:00,36.2,14.1,30.18,WSW,248,1.1,1.6,40,0.00,,,0.00,WUHU216HW,2013-01-17 08:55:00,
2013-01-17 02:05:00,36.5,14.5,30.18,North,0,0.9,2.5,40,0.00,,,0.00,WUHU216HW,2013-01-17 09:05:00,
2013-01-17 02:15:00,36.9,14.1,30.17,SW,225,0.4,1.8,39,0.00,,,0.00,WUHU216HW,2013-01-17 09:15:00,
2013-01-17 02:25:00,36.7,14.1,30.17,SSE,158,0.9,1.1,39,0.00,,,0.00,WUHU216HW,2013-01-17 09:25:00,
2013-01-17 02:35:00,36.0,13.3,30.16,WSW,248,0.4,0.4,39,0.00,,,0.00,WUHU216HW,2013-01-17 09:35:00,
2013-01-17 02:45:00,35.5,13.5,30.16,SSE,158,0.2,0.9,40,0.00,,,0.00,WUHU216HW,2013-01-17 09:45:00,
2013-01-17 02:55:00,34.9,13.6,30.16,SSW,203,0.0,1.1,41,0.00,,,0.00,WUHU216HW,2013-01-17 09:55:00,
2013-01-17 03:05:00,34.6,13.2,30.16,East,90,0.4,1.1,41,0.00,,,0.00,WUHU216HW,2013-01-17 10:05:00,
2013-01-17 03:15:00,34.4,13.1,30.17,WSW,248,0.4,1.1,41,0.00,,,0.00,WUHU216HW,2013-01-17 10:15:00,
2013-01-17 03:26:00,34.2,13.4,30.17,North,0,0.4,0.9,42,0.00,,,0.00,WUHU216HW,2013-01-17 10:26:00,
2013-01-17 03:36:00,34.0,13.2,30.16,WSW,248,0.2,1.6,42,0.00,,,0.00,WUHU216HW,2013-01-17 10:36:00,
2013-01-17 03:46:00,33.8,13.6,30.16,North,0,0.4,0.9,43,0.00,,,0.00,WUHU216HW,2013-01-17 10:46:00,
2013-01-17 03:56:00,33.8,13.6,30.15,North,0,0.0,1.3,43,0.00,,,0.00,WUHU216HW,2013-01-17 10:56:00,
2013-01-17 04:06:00,33.7,14.0,30.15,NNE,23,0.4,1.1,44,0.00,,,0.00,WUHU216HW,2013-01-17 11:06:00,
2013-01-17 04:16:00,33.5,13.8,30.14,SW,225,0.2,0.4,44,0.00,,,0.00,WUHU216HW,2013-01-17 11:16:00,
2013-01-17 04:26:00,33.1,13.4,30.13,SE,135,0.0,0.0,44,0.00,,,0.00,WUHU216HW,2013-01-17 11:26:00,
2013-01-17 04:36:00,32.8,14.1,30.13,WSW,248,0.2,0.9,46,0.00,,,0.00,WUHU216HW,2013-01-17 11:36:00,
2013-01-17 04:46:00,32.8,14.6,30.12,ESE,113,0.9,1.1,47,0.00,,,0.00,WUHU216HW,2013-01-17 11:46:00,
2013-01-17 04:56:00,33.5,14.2,30.13,WSW,248,0.4,1.1,45,0.00,,,0.00,WUHU216HW,2013-01-17 11:56:00,
2013-01-17 05:06:00,33.8,14.6,30.13,ESE,113,0.9,1.1,45,0.00,,,0.00,WUHU216HW,2013-01-17 12:06:00,
2013-01-17 05:16:00,33.7,14.4,30.14,SW,225,0.2,1.8,45,0.00,,,0.00,WUHU216HW,2013-01-17 12:16:00,
2013-01-17 05:26:00,33.7,14.4,30.14,ENE,68,1.1,1.1,45,0.00,,,0.00,WUHU216HW,2013-01-17 12:26:00,
2013-01-17 05:36:00,33.8,14.6,30.13,East,90,0.4,1.6,45,0.00,,,0.00,WUHU216HW,2013-01-17 12:36:00,
2013-01-17 05:46:00,33.8,14.6,30.14,SSE,158,0.2,0.7,45,0.00,,,0.00,WUHU216HW,2013-01-17 12:46:00,
2013-01-17 05:56:00,33.5,14.2,30.14,SSE,158,0.2,2.0,45,0.00,,,0.00,WUHU216HW,2013-01-17 12:56:00,
2013-01-17 06:06:00,33.7,14.4,30.14,SE,135,1.1,2.2,45,0.00,,,0.00,WUHU216HW,2013-01-17 13:06:00,
2013-01-17 06:17:00,34.2,15.0,30.15,ENE,68,0.4,2.5,45,0.00,,,0.00,WUHU216HW,2013-01-17 13:17:00,
2013-01-17 06:27:00,35.1,15.3,30.15,SW,225,0.4,2.2,44,0.00,,,0.00,WUHU216HW,2013-01-17 13:27:00,
2013-01-17 06:37:00,35.3,15.4,30.15,NW,315,0.0,1.1,44,0.00,,,0.00,WUHU216HW,2013-01-17 13:37:00,
2013-01-17 06:47:00,35.8,15.4,30.16,SE,135,1.1,2.5,43,0.00,,,0.00,WUHU216HW,2013-01-17 13:47:00,
2013-01-17 06:57:00,35.5,15.6,30.16,SW,225,0.4,1.1,44,0.00,,,0.00,WUHU216HW,2013-01-17 13:57:00,
2013-01-17 07:07:00,35.1,15.3,30.16,NE,45,0.4,1.6,44,0.00,,,0.00,WUHU216HW,2013-01-17 14:07:00,
2013-01-17 07:17:00,35.6,15.2,30.16,ENE,68,0.2,2.5,43,0.00,,,0.00,WUHU216HW,2013-01-17 14:17:00,
2013-01-17 07:27:00,35.6,15.2,30.16,SSE,158,1.1,1.6,43,0.00,,,0.00,WUHU216HW,2013-01-17 14:27:00,
2013-01-17 07:37:00,36.0,15.6,30.16,ESE,113,4.3,4.3,43,0.00,,,0.00,WUHU216HW,2013-01-17 14:37:00,
2013-01-17 07:47:00,41.8,16.6,30.17,ESE,113,4.5,7.2,36,0.00,,,0.00,WUHU216HW,2013-01-17 14:47:00,
2013-01-17 07:57:00,44.3,17.5,30.17,ESE,113,2.7,7.2,34,0.00,,,0.00,WUHU216HW,2013-01-17 14:57:00,
2013-01-17 08:07:00,44.3,17.5,30.17,SSE,158,1.6,3.4,34,0.00,,,0.00,WUHU216HW,2013-01-17 15:07:00,
2013-01-17 08:17:00,43.7,17.0,30.17,SSE,158,2.5,2.9,34,0.00,,,0.00,WUHU216HW,2013-01-17 15:17:00,
2013-01-17 08:27:00,44.1,16.7,30.18,South,180,1.6,2.9,33,0.00,,,0.00,WUHU216HW,2013-01-17 15:27:00,
2013-01-17 08:37:00,45.7,17.5,30.18,SE,135,6.3,6.3,32,0.00,,,0.00,WUHU216HW,2013-01-17 15:37:00,
2013-01-17 08:47:00,48.4,16.7,30.18,ESE,113,3.6,7.6,28,0.00,,,0.00,WUHU216HW,2013-01-17 15:47:00,
2013-01-17 08:57:00,51.3,16.3,30.18,ESE,113,3.8,11.4,25,0.00,,,0.00,WUHU216HW,2013-01-17 15:57:00,
2013-01-17 09:07:00,52.0,16.9,30.19,ESE,113,3.8,6.3,25,0.00,,,0.00,WUHU216HW,2013-01-17 16:07:00,
2013-01-17 09:17:00,53.1,16.8,30.19,ESE,113,6.3,8.5,24,0.00,,,0.00,WUHU216HW,2013-01-17 16:17:00,
2013-01-17 09:28:00,54.4,16.0,30.20,ESE,113,4.5,10.1,22,0.00,,,0.00,WUHU216HW,2013-01-17 16:28:00,
2013-01-17 09:38:00,55.1,14.8,30.20,ESE,113,6.5,12.5,20,0.00,,,0.00,WUHU216HW,2013-01-17 16:38:00,
2013-01-17 09:48:00,56.2,15.7,30.20,East,90,5.4,11.0,20,0.00,,,0.00,WUHU216HW,2013-01-17 16:48:00,
2013-01-17 09:58:00,56.9,13.1,30.20,East,90,11.9,11.9,18,0.00,,,0.00,WUHU216HW,2013-01-17 16:58:00,
2013-01-17 10:08:00,57.2,13.5,30.20,East,90,7.8,13.4,18,0.00,,,0.00,WUHU216HW,2013-01-17 17:08:00,
2013-01-17 10:18:00,58.1,14.2,30.20,ENE,68,5.8,11.4,18,0.00,,,0.00,WUHU216HW,2013-01-17 17:18:00,
2013-01-17 10:28:00,58.7,14.6,30.20,ESE,113,2.5,9.6,18,0.00,,,0.00,WUHU216HW,2013-01-17 17:28:00,
2013-01-17 10:38:00,59.4,15.2,30.20,ESE,113,6.7,10.5,18,0.00,,,0.00,WUHU216HW,2013-01-17 17:38:00,
2013-01-17 10:48:00,59.8,14.0,30.20,NNE,23,6.3,10.5,17,0.00,,,0.00,WUHU216HW,2013-01-17 17:48:00,
2013-01-17 10:58:00,60.5,16.2,30.19,ESE,113,7.4,10.5,18,0.00,,,0.00,WUHU216HW,2013-01-17 17:58:00,
2013-01-17 11:08:00,60.8,15.0,30.19,ESE,113,8.1,9.8,17,0.00,,,0.00,WUHU216HW,2013-01-17 18:08:00,
2013-01-17 11:18:00,61.6,15.5,30.18,East,90,7.2,10.1,17,0.00,,,0.00,WUHU216HW,2013-01-17 18:18:00,
2013-01-17 11:28:00,62.1,15.9,30.17,WNW,293,2.0,12.3,17,0.00,,,0.00,WUHU216HW,2013-01-17 18:28:00,
2013-01-17 11:38:00,62.6,16.4,30.16,ENE,68,4.7,7.4,17,0.00,,,0.00,WUHU216HW,2013-01-17 18:38:00,
2013-01-17 11:48:00,63.2,15.2,30.17,ESE,113,7.8,8.7,16,0.00,,,0.00,WUHU216HW,2013-01-17 18:48:00,
2013-01-17 11:58:00,63.7,15.7,30.17,ESE,113,8.5,9.8,16,0.00,,,0.00,WUHU216HW,2013-01-17 18:58:00,
2013-01-17 12:08:00,64.1,15.9,30.18,ENE,68,7.6,9.4,16,0.00,,,0.00,WUHU216HW,2013-01-17 19:08:00,
2013-01-17 12:18:00,64.6,14.8,30.17,East,90,8.7,11.9,15,0.00,,,0.00,WUHU216HW,2013-01-17 19:18:00,
2013-01-17 12:28:00,65.0,15.0,30.16,ENE,68,5.4,8.5,15,0.00,,,0.00,WUHU216HW,2013-01-17 19:28:00,
2013-01-17 12:39:00,65.7,15.6,30.15,NW,315,8.1,8.9,15,0.00,,,0.00,WUHU216HW,2013-01-17 19:39:00,
2013-01-17 12:49:00,66.1,15.8,30.14,NE,45,6.5,12.1,15,0.00,,,0.00,WUHU216HW,2013-01-17 19:49:00,
2013-01-17 12:59:00,66.2,16.0,30.14,ENE,68,3.8,8.3,15,0.00,,,0.00,WUHU216HW,2013-01-17 19:59:00,
2013-01-17 13:09:00,66.2,16.0,30.13,ESE,113,5.4,10.5,15,0.00,,,0.00,WUHU216HW,2013-01-17 20:09:00,
2013-01-17 13:19:00,66.2,16.0,30.13,NE,45,15.0,15.0,15,0.00,,,0.00,WUHU216HW,2013-01-17 20:19:00,
2013-01-17 13:29:00,66.1,15.8,30.13,ESE,113,13.9,13.9,15,0.00,,,0.00,WUHU216HW,2013-01-17 20:29:00,
2013-01-17 13:39:00,66.2,16.0,30.12,SE,135,9.4,12.1,15,0.00,,,0.00,WUHU216HW,2013-01-17 20:39:00,
2013-01-17 13:49:00,66.4,16.2,30.11,East,90,6.7,13.0,15,0.00,,,0.00,WUHU216HW,2013-01-17 20:49:00,
2013-01-17 13:59:00,66.6,16.3,30.11,ENE,68,9.8,12.1,15,0.00,,,0.00,WUHU216HW,2013-01-17 20:59:00,
2013-01-17 14:09:00,66.8,13.3,30.11,SE,135,9.8,13.4,13,0.00,,,0.00,WUHU216HW,2013-01-17 21:09:00,
2013-01-17 14:19:00,67.0,15.0,30.11,NE,45,9.8,13.2,14,0.00,,,0.00,WUHU216HW,2013-01-17 21:19:00,
2013-01-17 14:29:00,67.0,16.7,30.11,ESE,113,12.1,12.1,15,0.00,,,0.00,WUHU216HW,2013-01-17 21:29:00,
2013-01-17 14:39:00,67.1,16.8,30.11,ESE,113,8.5,12.1,15,0.00,,,0.00,WUHU216HW,2013-01-17 21:39:00,
2013-01-17 14:49:00,67.3,16.9,30.11,ESE,113,6.7,12.3,15,0.00,,,0.00,WUHU216HW,2013-01-17 21:49:00,
2013-01-17 14:59:00,67.3,16.9,30.10,NE,45,3.8,11.6,15,0.00,,,0.00,WUHU216HW,2013-01-17 21:59:00,
2013-01-17 15:09:00,67.5,17.1,30.10,ESE,113,9.4,10.7,15,0.00,,,0.00,WUHU216HW,2013-01-17 22:09:00,
2013-01-17 15:19:00,67.9,17.4,30.11,East,90,2.7,12.8,15,0.00,,,0.00,WUHU216HW,2013-01-17 22:19:00,
2013-01-17 15:30:00,67.5,17.1,30.11,East,90,4.9,12.8,15,0.00,,,0.00,WUHU216HW,2013-01-17 22:30:00,
2013-01-17 15:40:00,67.7,17.3,30.11,ENE,68,8.3,8.3,15,0.00,,,0.00,WUHU216HW,2013-01-17 22:40:00,
2013-01-17 15:50:00,67.7,17.3,30.11,ENE,68,8.5,9.6,15,0.00,,,0.00,WUHU216HW,2013-01-17 22:50:00,
2013-01-17 16:00:00,67.3,16.9,30.11,SE,135,8.3,9.2,15,0.00,,,0.00,WUHU216HW,2013-01-17 23:00:00,
2013-01-17 16:10:00,67.3,16.9,30.11,ENE,68,10.5,10.5,15,0.00,,,0.00,WUHU216HW,2013-01-17 23:10:00,
2013-01-17 16:20:00,67.1,16.8,30.11,East,90,6.5,7.8,15,0.00,,,0.00,WUHU216HW,2013-01-17 23:20:00,
2013-01-17 16:30:00,67.0,16.7,30.11,NNW,338,4.7,9.8,15,0.00,,,0.00,WUHU216HW,2013-01-17 23:30:00,
2013-01-17 16:40:00,66.8,16.5,30.11,ENE,68,3.4,8.1,15,0.00,,,0.00,WUHU216HW,2013-01-17 23:40:00,
2013-01-17 16:50:00,66.4,16.2,30.11,ESE,113,4.0,7.6,15,0.00,,,0.00,WUHU216HW,2013-01-17 23:50:00,
2013-01-17 17:00:00,66.2,17.7,30.12,East,90,4.0,12.1,16,0.00,,,0.00,WUHU216HW,2013-01-18 00:00:00,
2013-01-17 17:10:00,65.9,17.3,30.12,WSW,248,8.1,9.2,16,0.00,,,0.00,WUHU216HW,2013-01-18 00:10:00,
2013-01-17 17:20:00,65.5,17.0,30.12,ESE,113,8.3,10.7,16,0.00,,,0.00,WUHU216HW,2013-01-18 00:20:00,
2013-01-17 17:30:00,65.0,16.6,30.12,East,90,6.3,11.4,16,0.00,,,0.00,WUHU216HW,2013-01-18 00:30:00,
2013-01-17 17:40:00,64.4,16.2,30.13,NE,45,6.7,10.1,16,0.00,,,0.00,WUHU216HW,2013-01-18 00:40:00,
2013-01-17 17:50:00,63.9,17.4,30.12,ENE,68,5.4,9.8,17,0.00,,,0.00,WUHU216HW,2013-01-18 00:50:00,
2013-01-17 18:00:00,63.5,17.0,30.13,East,90,5.4,10.5,17,0.00,,,0.00,WUHU216HW,2013-01-18 01:00:00,
2013-01-17 18:11:00,63.4,16.9,30.13,ESE,113,2.0,9.2,17,0.00,,,0.00,WUHU216HW,2013-01-18 01:11:00,
2013-01-17 18:21:00,63.2,18.4,30.13,ENE,68,4.7,12.3,18,0.00,,,0.00,WUHU216HW,2013-01-18 01:21:00,
2013-01-17 18:31:00,62.8,18.1,30.13,NNE,23,3.6,10.7,18,0.00,,,0.00,WUHU216HW,2013-01-18 01:31:00,
2013-01-17 18:41:00,62.6,17.9,30.14,ESE,113,4.0,9.2,18,0.00,,,0.00,WUHU216HW,2013-01-18 01:41:00,
2013-01-17 18:51:00,62.3,17.6,30.14,NE,45,6.5,8.1,18,0.00,,,0.00,WUHU216HW,2013-01-18 01:51:00,
2013-01-17 19:01:00,62.1,17.5,30.14,East,90,7.4,12.5,18,0.00,,,0.00,WUHU216HW,2013-01-18 02:01:00,
2013-01-17 19:11:00,62.1,17.5,30.14,NNE,23,5.4,11.4,18,0.00,,,0.00,WUHU216HW,2013-01-18 02:11:00,
2013-01-17 19:21:00,61.6,17.1,30.14,ESE,113,6.7,8.5,18,0.00,,,0.00,WUHU216HW,2013-01-18 02:21:00,
2013-01-17 19:31:00,61.6,18.6,30.15,East,90,6.7,8.9,19,0.00,,,0.00,WUHU216HW,2013-01-18 02:31:00,
2013-01-17 19:41:00,61.4,18.5,30.15,ESE,113,5.6,10.3,19,0.00,,,0.00,WUHU216HW,2013-01-18 02:41:00,
2013-01-17 19:51:00,61.2,18.4,30.15,ESE,113,5.8,10.5,19,0.00,,,0.00,WUHU216HW,2013-01-18 02:51:00,
2013-01-17 20:01:00,61.2,18.4,30.15,ENE,68,4.7,9.8,19,0.00,,,0.00,WUHU216HW,2013-01-18 03:01:00,
2013-01-17 20:11:00,60.8,18.1,30.16,East,90,6.3,9.8,19,0.00,,,0.00,WUHU216HW,2013-01-18 03:11:00,
2013-01-17 20:21:00,60.3,20.1,30.15,ESE,113,5.6,8.7,21,0.00,,,0.00,WUHU216HW,2013-01-18 03:21:00,
2013-01-17 20:31:00,59.8,19.6,30.16,ESE,113,5.8,8.5,21,0.00,,,0.00,WUHU216HW,2013-01-18 03:31:00,
2013-01-17 20:41:00,59.4,19.3,30.16,ESE,113,10.1,10.1,21,0.00,,,0.00,WUHU216HW,2013-01-18 03:41:00,
2013-01-17 20:51:00,59.8,19.6,30.16,SE,135,4.3,9.2,21,0.00,,,0.00,WUHU216HW,2013-01-18 03:51:00,
2013-01-17 21:02:00,59.6,19.4,30.17,ESE,113,4.5,9.8,21,0.00,,,0.00,WUHU216HW,2013-01-18 04:02:00,
2013-01-17 21:12:00,59.0,19.0,30.17,SSE,158,8.3,8.3,21,0.00,,,0.00,WUHU216HW,2013-01-18 04:12:00,
2013-01-17 21:22:00,58.7,18.7,30.17,SE,135,6.0,9.4,21,0.00,,,0.00,WUHU216HW,2013-01-18 04:22:00,
2013-01-17 21:32:00,58.5,18.6,30.17,East,90,2.9,11.6,21,0.00,,,0.00,WUHU216HW,2013-01-18 04:32:00,
2013-01-17 21:42:00,58.3,18.4,30.17,SE,135,7.2,7.6,21,0.00,,,0.00,WUHU216HW,2013-01-18 04:42:00,
2013-01-17 21:52:00,58.5,18.6,30.17,SE,135,8.3,8.3,21,0.00,,,0.00,WUHU216HW,2013-01-18 04:52:00,
2013-01-17 22:03:00,58.5,18.6,30.17,East,90,8.7,13.2,21,0.00,,,0.00,WUHU216HW,2013-01-18 05:03:00,
2013-01-17 22:13:00,58.1,18.3,30.17,ESE,113,6.0,8.1,21,0.00,,,0.00,WUHU216HW,2013-01-18 05:13:00,
2013-01-17 22:23:00,58.0,18.1,30.17,SE,135,9.6,9.8,21,0.00,,,0.00,WUHU216HW,2013-01-18 05:23:00,
2013-01-17 22:33:00,58.0,18.1,30.17,ESE,113,2.5,6.3,21,0.00,,,0.00,WUHU216HW,2013-01-18 05:33:00,
2013-01-17 22:43:00,57.8,17.9,30.17,SE,135,5.4,9.8,21,0.00,,,0.00,WUHU216HW,2013-01-18 05:43:00,
2013-01-17 22:53:00,57.6,17.8,30.17,SE,135,5.4,8.5,21,0.00,,,0.00,WUHU216HW,2013-01-18 05:53:00,
2013-01-17 23:03:00,57.2,18.5,30.17,SE,135,6.9,10.3,22,0.00,,,0.00,WUHU216HW,2013-01-18 06:03:00,
2013-01-17 23:13:00,57.8,17.9,30.17,SSE,158,5.1,10.7,21,0.00,,,0.00,WUHU216HW,2013-01-18 06:13:00,
2013-01-17 23:23:00,57.8,17.9,30.17,East,90,6.3,10.3,21,0.00,,,0.00,WUHU216HW,2013-01-18 06:23:00,
2013-01-17 23:33:00,57.6,17.8,30.17,ENE,68,6.3,9.8,21,0.00,,,0.00,WUHU216HW,2013-01-18 06:33:00,
2013-01-17 23:44:00,58.0,18.1,30.17,ESE,113,10.5,11.4,21,0.00,,,0.00,WUHU216HW,2013-01-18 06:44:00,
2013-01-17 23:54:00,58.0,18.1,30.17,ESE,113,7.6,9.6,21,0.00,,,0.00,WUHU216HW,2013-01-18 06:54:00,